Hibbing, MN

12:23 AM CST on December 26, 2014 (GMT -0600)
Hibbing, MN | Change Station
CLOSE
Current Station
Personal Weather Station
Location: Hibbing, MN
Elevation: 1312 ft
Nearby Weather Stations

Elev 1312 ft 47.36 °N, 92.82 °W | Updated 7 minutes ago

Overcast
Overcast
27.7 °F
Feels Like 21 °F
N
5.8
Wind Variable Wind from SSW
Gusts 7.6 mph

Today
High -- | Low -- °F
--% Chance of Precip.
Yesterday
High -- | Low -- °F
Precip. -- in
7:58 AM 4:26 PM
Waxing Crescent, 23% visible
Pressure 29.97 in
Visibility 10.0 miles
Clouds Overcast 1900 ft
Windchill 21 °F
Dew Point -10 °F
Humidity 18%
Rainfall 0.00 in
Snow Depth Not available.
UV 0 out of 12
Pollen .10 out of 12
Air Quality Not available.
Flu Activity Not available.
METAR KHIB 260553Z AUTO 33008KT 10SM OVC019 M02/M06 A2991 RMK AO2 SLP148 T10171061 11006 21017 400001017 53017

More Conditions Fewer Conditions

Pressure 29.97 in
Visibility 10.0 miles
Clouds Overcast 1900 ft
Windchill 21 °F
Dew Point -10 °F
Humidity 18%
Rainfall 0.00 in
Snow Depth Not available.
UV 0 out of 12
Pollen .10 out of 12
Air Quality Not available.
Flu Activity Not available.
METAR KHIB 260553Z AUTO 33008KT 10SM OVC019 M02/M06 A2991 RMK AO2 SLP148 T10171061 11006 21017 400001017 53017

More Conditions Fewer Conditions

10-Day Weather Forecast

Almanac

Astronomy

Dec. 26, 2014 Rise Set
Actual Time
Civil Twilight
Nautical Twilight
Astronomical Twilight
Moon
Length of Visible Light
Length of Day
Tomorrow will be .
, % of the Moon is Illuminated

Today's Extremes

State Highs State Lows

Community

WunderPhotos

Upload Photos

1,780,556 photos uploaded!

WunderBlogs® & News

Nearby

Air Quality

  Air Quality AQ Index Pollutant
Not available.

Snow Depth

Station Depth Elevation

Earthquake Activity

City Distance Mag. Time & Date
Minimum magnitude displayed is 2.5.

Coastal Water Temperatures

Place Temperature

Nearby Weather Stations